Home   Weather   USA   Daphne   Past weeks
Flag for USA

Past Weather in Daphne, Alabama, USA — Yesterday and Last 2 Weeks

Currently: 48 °F. Fog. (Weather station: Mobile Downtown Airport, USA). See more current weather

Past Weather in Daphne — Graph

°F

Daphne Temperature Yesterday

Maximum temperature yesterday: 57 °F (at 10:53 am)
Minimum temperature yesterday: 31 °F (at 5:53 am)
Average temperature yesterday: 46 °F

High & Low Weather Summary for the Past Weeks

 TemperatureHumidityPressure
High69 °F (Jan 13, 1:53 pm)97% (Jan 13, 1:53 am)30.55 "Hg (Jan 13, 1:53 am)
Low26 °F (Jan 23, 6:53 am)22% (Jan 23, 12:53 pm)29.69 "Hg (Jan 15, 8:32 pm)
Average47 °F71%30.13 "Hg
* Reported Jan 10 8:53 am — Jan 25 8:53 am, Daphne. Weather by CustomWeather, © 2022

Note: Actual official high and low records may vary slightly from our data, if they occured in-between our weather recording intervals... More about our weather records

Daphne Weather History for the Previous 24 Hours

Scroll right to see more
 ConditionsComfort  
Time TempWeatherWind HumidityBarometerVisibility
8:53 am
Tue, Jan 25
48 °FFog.9 mph93%30.00 "Hg5 mi
8:04 am47 °FLight rain. Fog.10 mph97%30.00 "Hg3 mi
7:53 am48 °FLight rain. Fog.8 mph93%29.99 "Hg2 mi
7:26 am48 °FRain. Fog.9 mph93%29.99 "Hg2 mi
7:00 am48 °FMostly cloudy.8 mph93%29.98 "Hg10 mi
5:53 am47 °FRain. Fog.9 mph93%29.97 "Hg2 mi
5:34 am47 °FHeavy rain. Fog.10 mph93%30.00 "Hg2 mi
5:10 am47 °FRain. Fog.9 mph93%29.98 "Hg3 mi
4:53 am47 °FRain. Fog.8 mph93%29.96 "Hg3 mi
4:34 am47 °FLight rain. Fog.7 mph93%29.95 "Hg6 mi
4:01 am46 °FRain. Fog.8 mph96%29.95 "Hg4 mi
3:24 am46 °FRain. Fog.12 mph93%29.95 "Hg5 mi
2:53 am46 °FRain. Fog.13 mph96%29.94 "Hg5 mi
2:27 am46 °FRain. Fog.10 mph93%29.95 "Hg3 mi
2:18 am46 °FRain. Fog.7 mph93%29.95 "Hg3 mi
1:24 am47 °FRain. Mostly cloudy.7 mph86%29.95 "Hg8 mi
12:53 am48 °FRain. Mostly cloudy.7 mph77%29.95 "Hg9 mi
12:16 am49 °FLight rain. Mostly cloudy.3 mph71%29.96 "Hg10 mi
11:53 pm
Mon, Jan 24
48 °FLight rain. Mostly cloudy.5 mph71%29.98 "Hg10 mi
10:53 pm49 °FOvercast.3 mph66%30.00 "Hg10 mi
9:53 pm50 °FOvercast.No wind63%30.01 "Hg10 mi
8:53 pm50 °FPassing clouds.No wind63%30.00 "Hg10 mi
7:53 pm50 °FOvercast.No wind66%30.00 "Hg10 mi
6:53 pm51 °FOvercast.3 mph54%29.99 "Hg10 mi
5:53 pm53 °FPassing clouds.3 mph43%30.00 "Hg10 mi
4:53 pm54 °FPassing clouds.3 mph41%30.00 "Hg10 mi
3:53 pm54 °FSunny.6 mph43%30.00 "Hg10 mi
2:53 pm55 °FSunny.6 mph49%29.98 "Hg10 mi
1:53 pm53 °FSunny.9 mph61%29.97 "Hg10 mi
12:53 pm52 °FSunny.8 mph64%30.01 "Hg10 mi
11:53 am51 °FSunny.8 mph66%30.05 "Hg10 mi
10:53 am57 °FSunny.6 mph37%30.09 "Hg10 mi
Weather by CustomWeather, © 2022

See weather overview